sensor_id;sensor_type;location;lat;lon;timestamp;P1;durP1;ratioP1;P2;durP2;ratioP2
76935;SDS011;65881;52.438;16.744;2024-03-23T00:52:23;43.95;;;21.52;;
76935;SDS011;65881;52.438;16.744;2024-03-23T00:54:52;49.30;;;24.00;;
76935;SDS011;65881;52.438;16.744;2024-03-23T00:57:17;47.15;;;23.00;;
76935;SDS011;65881;52.438;16.744;2024-03-23T00:59:43;49.22;;;24.15;;
76935;SDS011;65881;52.438;16.744;2024-03-23T01:02:09;48.85;;;26.35;;
76935;SDS011;65881;52.438;16.744;2024-03-23T01:04:34;43.40;;;21.63;;
76935;SDS011;65881;52.438;16.744;2024-03-23T01:07:00;51.92;;;23.73;;
76935;SDS011;65881;52.438;16.744;2024-03-23T01:09:26;51.92;;;24.30;;
76935;SDS011;65881;52.438;16.744;2024-03-23T01:11:52;48.75;;;22.27;;
76935;SDS011;65881;52.438;16.744;2024-03-23T01:14:18;47.75;;;22.15;;
76935;SDS011;65881;52.438;16.744;2024-03-23T01:16:44;42.25;;;21.90;;
76935;SDS011;65881;52.438;16.744;2024-03-23T01:19:10;45.03;;;23.58;;
76935;SDS011;65881;52.438;16.744;2024-03-23T01:21:38;54.03;;;26.75;;
76935;SDS011;65881;52.438;16.744;2024-03-23T01:24:03;52.28;;;24.35;;
76935;SDS011;65881;52.438;16.744;2024-03-23T01:26:29;47.28;;;22.83;;
76935;SDS011;65881;52.438;16.744;2024-03-23T01:28:55;50.70;;;26.95;;
76935;SDS011;65881;52.438;16.744;2024-03-23T01:31:20;52.72;;;25.13;;
76935;SDS011;65881;52.438;16.744;2024-03-23T01:33:46;48.92;;;24.90;;
76935;SDS011;65881;52.438;16.744;2024-03-23T01:36:11;51.65;;;24.55;;
76935;SDS011;65881;52.438;16.744;2024-03-23T01:38:40;47.88;;;23.10;;
76935;SDS011;65881;52.438;16.744;2024-03-23T01:41:10;54.88;;;25.33;;
76935;SDS011;65881;52.438;16.744;2024-03-23T01:43:35;44.53;;;24.58;;
76935;SDS011;65881;52.438;16.744;2024-03-23T01:46:01;53.78;;;22.38;;
76935;SDS011;65881;52.438;16.744;2024-03-23T01:48:28;55.40;;;24.45;;
76935;SDS011;65881;52.438;16.744;2024-03-23T01:50:53;50.08;;;23.17;;
76935;SDS011;65881;52.438;16.744;2024-03-23T01:53:22;47.28;;;23.58;;
76935;SDS011;65881;52.438;16.744;2024-03-23T01:55:48;52.90;;;23.70;;
76935;SDS011;65881;52.438;16.744;2024-03-23T01:58:15;54.70;;;27.05;;
76935;SDS011;65881;52.438;16.744;2024-03-23T02:00:44;52.72;;;22.80;;
76935;SDS011;65881;52.438;16.744;2024-03-23T02:03:27;53.95;;;25.77;;
76935;SDS011;65881;52.438;16.744;2024-03-23T02:05:59;51.20;;;23.35;;
76935;SDS011;65881;52.438;16.744;2024-03-23T02:08:28;52.10;;;24.60;;
76935;SDS011;65881;52.438;16.744;2024-03-23T02:10:55;55.33;;;23.80;;
76935;SDS011;65881;52.438;16.744;2024-03-23T02:13:21;50.20;;;24.67;;
76935;SDS011;65881;52.438;16.744;2024-03-23T02:15:47;53.22;;;25.85;;
76935;SDS011;65881;52.438;16.744;2024-03-23T02:18:13;49.45;;;23.13;;
76935;SDS011;65881;52.438;16.744;2024-03-23T02:20:42;47.30;;;23.95;;
76935;SDS011;65881;52.438;16.744;2024-03-23T02:23:12;54.85;;;25.30;;
76935;SDS011;65881;52.438;16.744;2024-03-23T02:25:42;48.80;;;24.70;;
76935;SDS011;65881;52.438;16.744;2024-03-23T02:28:08;48.45;;;23.58;;
76935;SDS011;65881;52.438;16.744;2024-03-23T02:30:34;53.90;;;26.25;;
76935;SDS011;65881;52.438;16.744;2024-03-23T02:33:00;50.97;;;23.70;;
76935;SDS011;65881;52.438;16.744;2024-03-23T02:35:26;53.38;;;24.58;;
76935;SDS011;65881;52.438;16.744;2024-03-23T02:37:51;44.22;;;23.75;;
76935;SDS011;65881;52.438;16.744;2024-03-23T02:40:19;45.67;;;24.13;;
76935;SDS011;65881;52.438;16.744;2024-03-23T02:42:45;45.80;;;24.17;;
76935;SDS011;65881;52.438;16.744;2024-03-23T02:45:11;47.65;;;25.35;;
76935;SDS011;65881;52.438;16.744;2024-03-23T02:47:36;48.83;;;23.30;;
76935;SDS011;65881;52.438;16.744;2024-03-23T02:50:02;45.80;;;24.10;;
76935;SDS011;65881;52.438;16.744;2024-03-23T02:52:29;44.97;;;22.63;;
76935;SDS011;65881;52.438;16.744;2024-03-23T02:54:58;45.75;;;24.08;;
76935;SDS011;65881;52.438;16.744;2024-03-23T02:57:39;50.92;;;25.05;;
76935;SDS011;65881;52.438;16.744;2024-03-23T03:02:57;44.03;;;21.75;;
76935;SDS011;65881;52.438;16.744;2024-03-23T03:05:22;46.35;;;22.35;;
76935;SDS011;65881;52.438;16.744;2024-03-23T03:07:48;50.45;;;24.65;;
76935;SDS011;65881;52.438;16.744;2024-03-23T03:10:14;52.30;;;23.23;;
76935;SDS011;65881;52.438;16.744;2024-03-23T03:12:39;53.10;;;26.00;;
76935;SDS011;65881;52.438;16.744;2024-03-23T03:15:05;50.92;;;24.90;;
76935;SDS011;65881;52.438;16.744;2024-03-23T03:17:31;54.42;;;23.23;;
76935;SDS011;65881;52.438;16.744;2024-03-23T03:19:58;52.03;;;23.48;;
76935;SDS011;65881;52.438;16.744;2024-03-23T03:22:24;57.58;;;26.98;;
76935;SDS011;65881;52.438;16.744;2024-03-23T03:24:52;52.33;;;24.58;;
76935;SDS011;65881;52.438;16.744;2024-03-23T03:27:20;49.47;;;23.90;;
76935;SDS011;65881;52.438;16.744;2024-03-23T03:29:47;52.33;;;25.60;;
76935;SDS011;65881;52.438;16.744;2024-03-23T03:32:15;48.58;;;24.23;;
76935;SDS011;65881;52.438;16.744;2024-03-23T03:34:41;54.13;;;26.33;;
76935;SDS011;65881;52.438;16.744;2024-03-23T03:37:07;46.63;;;23.15;;
76935;SDS011;65881;52.438;16.744;2024-03-23T03:39:32;49.95;;;25.13;;
76935;SDS011;65881;52.438;16.744;2024-03-23T03:42:03;49.03;;;22.80;;
76935;SDS011;65881;52.438;16.744;2024-03-23T03:44:34;46.03;;;24.20;;
76935;SDS011;65881;52.438;16.744;2024-03-23T03:47:10;52.90;;;27.67;;
76935;SDS011;65881;52.438;16.744;2024-03-23T03:49:38;58.00;;;24.35;;
76935;SDS011;65881;52.438;16.744;2024-03-23T03:52:06;53.80;;;25.55;;
76935;SDS011;65881;52.438;16.744;2024-03-23T03:54:38;47.80;;;24.77;;
76935;SDS011;65881;52.438;16.744;2024-03-23T03:57:03;57.17;;;24.52;;
76935;SDS011;65881;52.438;16.744;2024-03-23T03:59:29;29.30;;;16.88;;
76935;SDS011;65881;52.438;16.744;2024-03-23T04:01:55;16.35;;;9.52;;
76935;SDS011;65881;52.438;16.744;2024-03-23T04:04:20;17.13;;;7.70;;
76935;SDS011;65881;52.438;16.744;2024-03-23T04:06:47;16.00;;;9.50;;
76935;SDS011;65881;52.438;16.744;2024-03-23T04:09:14;9.02;;;5.70;;
76935;SDS011;65881;52.438;16.744;2024-03-23T04:11:40;10.30;;;6.07;;
76935;SDS011;65881;52.438;16.744;2024-03-23T04:14:05;9.18;;;5.57;;
76935;SDS011;65881;52.438;16.744;2024-03-23T04:16:33;15.88;;;6.22;;
76935;SDS011;65881;52.438;16.744;2024-03-23T04:19:00;9.77;;;5.63;;
76935;SDS011;65881;52.438;16.744;2024-03-23T04:21:25;13.57;;;6.25;;
76935;SDS011;65881;52.438;16.744;2024-03-23T04:23:51;14.15;;;5.88;;
76935;SDS011;65881;52.438;16.744;2024-03-23T04:26:17;10.38;;;5.63;;
76935;SDS011;65881;52.438;16.744;2024-03-23T04:28:42;13.63;;;5.50;;
76935;SDS011;65881;52.438;16.744;2024-03-23T04:31:08;11.15;;;6.82;;
76935;SDS011;65881;52.438;16.744;2024-03-23T04:33:34;8.73;;;5.90;;
76935;SDS011;65881;52.438;16.744;2024-03-23T04:36:00;13.05;;;6.20;;
76935;SDS011;65881;52.438;16.744;2024-03-23T04:38:25;13.60;;;5.15;;
76935;SDS011;65881;52.438;16.744;2024-03-23T04:40:55;16.60;;;5.15;;
76935;SDS011;65881;52.438;16.744;2024-03-23T04:43:21;14.10;;;6.07;;
76935;SDS011;65881;52.438;16.744;2024-03-23T04:45:47;12.77;;;5.07;;
76935;SDS011;65881;52.438;16.744;2024-03-23T04:48:13;10.48;;;5.10;;
76935;SDS011;65881;52.438;16.744;2024-03-23T04:50:38;13.15;;;5.35;;
76935;SDS011;65881;52.438;16.744;2024-03-23T04:53:04;13.23;;;5.20;;
76935;SDS011;65881;52.438;16.744;2024-03-23T04:55:29;14.68;;;5.65;;
76935;SDS011;65881;52.438;16.744;2024-03-23T04:57:56;10.63;;;6.00;;
76935;SDS011;65881;52.438;16.744;2024-03-23T05:00:21;12.40;;;5.68;;
76935;SDS011;65881;52.438;16.744;2024-03-23T05:02:48;11.77;;;6.22;;
76935;SDS011;65881;52.438;16.744;2024-03-23T05:05:14;16.60;;;5.00;;
76935;SDS011;65881;52.438;16.744;2024-03-23T05:07:39;11.30;;;5.43;;
76935;SDS011;65881;52.438;16.744;2024-03-23T05:10:06;15.85;;;5.47;;
76935;SDS011;65881;52.438;16.744;2024-03-23T05:12:35;12.43;;;5.47;;
76935;SDS011;65881;52.438;16.744;2024-03-23T05:15:04;18.42;;;6.28;;
76935;SDS011;65881;52.438;16.744;2024-03-23T05:17:31;11.05;;;4.53;;
76935;SDS011;65881;52.438;16.744;2024-03-23T05:19:57;10.40;;;4.35;;
76935;SDS011;65881;52.438;16.744;2024-03-23T05:22:22;17.10;;;4.88;;
76935;SDS011;65881;52.438;16.744;2024-03-23T05:24:48;13.55;;;4.95;;
76935;SDS011;65881;52.438;16.744;2024-03-23T05:27:14;12.88;;;5.45;;
76935;SDS011;65881;52.438;16.744;2024-03-23T05:29:41;12.25;;;5.05;;
76935;SDS011;65881;52.438;16.744;2024-03-23T05:32:06;15.90;;;4.30;;
76935;SDS011;65881;52.438;16.744;2024-03-23T05:34:32;11.80;;;3.28;;
76935;SDS011;65881;52.438;16.744;2024-03-23T05:36:59;26.15;;;5.28;;
76935;SDS011;65881;52.438;16.744;2024-03-23T05:39:25;14.43;;;5.53;;
76935;SDS011;65881;52.438;16.744;2024-03-23T05:41:50;8.98;;;3.60;;
76935;SDS011;65881;52.438;16.744;2024-03-23T05:44:16;15.90;;;5.03;;
76935;SDS011;65881;52.438;16.744;2024-03-23T05:46:42;14.23;;;4.65;;
76935;SDS011;65881;52.438;16.744;2024-03-23T05:49:13;15.13;;;5.32;;
76935;SDS011;65881;52.438;16.744;2024-03-23T05:51:39;20.13;;;6.13;;
76935;SDS011;65881;52.438;16.744;2024-03-23T05:54:04;14.70;;;6.72;;
76935;SDS011;65881;52.438;16.744;2024-03-23T05:56:30;23.50;;;6.85;;
76935;SDS011;65881;52.438;16.744;2024-03-23T05:58:56;21.17;;;6.47;;
76935;SDS011;65881;52.438;16.744;2024-03-23T06:01:22;17.77;;;5.82;;
76935;SDS011;65881;52.438;16.744;2024-03-23T06:03:47;17.23;;;5.32;;
76935;SDS011;65881;52.438;16.744;2024-03-23T06:06:13;26.98;;;6.28;;
76935;SDS011;65881;52.438;16.744;2024-03-23T06:08:39;22.23;;;6.85;;
76935;SDS011;65881;52.438;16.744;2024-03-23T06:11:04;14.65;;;5.97;;
76935;SDS011;65881;52.438;16.744;2024-03-23T06:13:31;12.38;;;5.57;;
76935;SDS011;65881;52.438;16.744;2024-03-23T06:15:57;14.20;;;5.80;;
76935;SDS011;65881;52.438;16.744;2024-03-23T06:18:23;14.77;;;5.57;;
76935;SDS011;65881;52.438;16.744;2024-03-23T06:20:49;19.77;;;4.88;;
76935;SDS011;65881;52.438;16.744;2024-03-23T06:23:14;14.35;;;5.05;;
76935;SDS011;65881;52.438;16.744;2024-03-23T06:25:44;16.70;;;4.68;;
76935;SDS011;65881;52.438;16.744;2024-03-23T06:28:10;17.52;;;5.00;;
76935;SDS011;65881;52.438;16.744;2024-03-23T06:30:36;22.90;;;6.35;;
76935;SDS011;65881;52.438;16.744;2024-03-23T06:33:01;15.82;;;5.60;;
76935;SDS011;65881;52.438;16.744;2024-03-23T06:35:27;22.42;;;6.15;;
76935;SDS011;65881;52.438;16.744;2024-03-23T06:37:52;12.18;;;4.95;;
76935;SDS011;65881;52.438;16.744;2024-03-23T06:40:18;20.35;;;6.47;;
76935;SDS011;65881;52.438;16.744;2024-03-23T06:42:43;15.20;;;5.20;;
76935;SDS011;65881;52.438;16.744;2024-03-23T06:45:09;19.77;;;5.40;;
76935;SDS011;65881;52.438;16.744;2024-03-23T06:47:35;14.13;;;4.78;;
76935;SDS011;65881;52.438;16.744;2024-03-23T06:50:00;19.52;;;6.13;;
76935;SDS011;65881;52.438;16.744;2024-03-23T06:52:27;20.98;;;4.70;;
76935;SDS011;65881;52.438;16.744;2024-03-23T06:54:53;13.70;;;4.50;;
76935;SDS011;65881;52.438;16.744;2024-03-23T06:57:19;26.77;;;5.30;;
76935;SDS011;65881;52.438;16.744;2024-03-23T06:59:44;13.50;;;5.20;;
76935;SDS011;65881;52.438;16.744;2024-03-23T07:02:10;24.80;;;6.55;;
76935;SDS011;65881;52.438;16.744;2024-03-23T07:04:36;10.32;;;4.90;;
76935;SDS011;65881;52.438;16.744;2024-03-23T07:07:02;15.32;;;5.32;;
76935;SDS011;65881;52.438;16.744;2024-03-23T07:09:28;12.80;;;5.75;;
76935;SDS011;65881;52.438;16.744;2024-03-23T07:11:54;20.92;;;5.88;;
76935;SDS011;65881;52.438;16.744;2024-03-23T07:14:21;28.20;;;6.45;;
76935;SDS011;65881;52.438;16.744;2024-03-23T07:16:47;16.67;;;4.45;;
76935;SDS011;65881;52.438;16.744;2024-03-23T07:19:14;21.27;;;5.85;;
76935;SDS011;65881;52.438;16.744;2024-03-23T07:21:44;14.35;;;5.57;;
76935;SDS011;65881;52.438;16.744;2024-03-23T07:24:10;15.18;;;5.22;;
76935;SDS011;65881;52.438;16.744;2024-03-23T07:26:36;10.15;;;4.75;;
76935;SDS011;65881;52.438;16.744;2024-03-23T07:29:03;21.88;;;4.70;;
76935;SDS011;65881;52.438;16.744;2024-03-23T07:31:29;19.92;;;5.40;;
76935;SDS011;65881;52.438;16.744;2024-03-23T07:33:55;16.33;;;5.28;;
76935;SDS011;65881;52.438;16.744;2024-03-23T07:36:20;14.10;;;4.60;;
76935;SDS011;65881;52.438;16.744;2024-03-23T07:38:46;11.57;;;4.60;;
76935;SDS011;65881;52.438;16.744;2024-03-23T07:41:15;17.50;;;5.40;;
76935;SDS011;65881;52.438;16.744;2024-03-23T07:43:45;15.15;;;4.72;;
76935;SDS011;65881;52.438;16.744;2024-03-23T07:46:11;19.77;;;5.88;;
76935;SDS011;65881;52.438;16.744;2024-03-23T07:48:37;17.15;;;4.32;;
76935;SDS011;65881;52.438;16.744;2024-03-23T07:51:07;10.73;;;5.60;;
76935;SDS011;65881;52.438;16.744;2024-03-23T07:56:01;8.82;;;4.68;;
76935;SDS011;65881;52.438;16.744;2024-03-23T07:58:35;17.58;;;4.45;;
76935;SDS011;65881;52.438;16.744;2024-03-23T08:01:08;15.80;;;6.43;;
76935;SDS011;65881;52.438;16.744;2024-03-23T08:03:35;11.80;;;4.80;;
76935;SDS011;65881;52.438;16.744;2024-03-23T08:06:08;13.75;;;6.60;;
76935;SDS011;65881;52.438;16.744;2024-03-23T08:08:45;14.15;;;5.72;;
76935;SDS011;65881;52.438;16.744;2024-03-23T08:11:12;18.70;;;5.28;;
76935;SDS011;65881;52.438;16.744;2024-03-23T08:13:39;12.15;;;5.13;;
76935;SDS011;65881;52.438;16.744;2024-03-23T08:16:06;19.90;;;5.18;;
76935;SDS011;65881;52.438;16.744;2024-03-23T08:18:33;15.38;;;5.43;;
76935;SDS011;65881;52.438;16.744;2024-03-23T08:21:00;15.50;;;4.82;;
76935;SDS011;65881;52.438;16.744;2024-03-23T08:23:28;16.38;;;5.18;;
76935;SDS011;65881;52.438;16.744;2024-03-23T08:25:58;18.50;;;5.70;;
76935;SDS011;65881;52.438;16.744;2024-03-23T08:28:28;21.67;;;6.15;;
76935;SDS011;65881;52.438;16.744;2024-03-23T08:30:55;18.48;;;5.85;;
76935;SDS011;65881;52.438;16.744;2024-03-23T08:33:21;13.88;;;5.53;;
76935;SDS011;65881;52.438;16.744;2024-03-23T08:35:57;16.02;;;6.07;;
76935;SDS011;65881;52.438;16.744;2024-03-23T08:38:25;17.20;;;6.75;;
76935;SDS011;65881;52.438;16.744;2024-03-23T08:40:58;14.80;;;5.10;;
76935;SDS011;65881;52.438;16.744;2024-03-23T08:43:27;15.23;;;5.47;;
76935;SDS011;65881;52.438;16.744;2024-03-23T08:46:02;16.80;;;5.38;;
76935;SDS011;65881;52.438;16.744;2024-03-23T08:48:39;21.35;;;5.70;;
76935;SDS011;65881;52.438;16.744;2024-03-23T08:51:08;17.60;;;7.15;;
76935;SDS011;65881;52.438;16.744;2024-03-23T08:53:35;12.40;;;5.40;;
76935;SDS011;65881;52.438;16.744;2024-03-23T08:56:01;14.50;;;5.13;;
76935;SDS011;65881;52.438;16.744;2024-03-23T08:58:27;13.18;;;6.20;;
76935;SDS011;65881;52.438;16.744;2024-03-23T09:00:54;9.95;;;5.35;;
76935;SDS011;65881;52.438;16.744;2024-03-23T09:03:21;21.05;;;5.63;;
76935;SDS011;65881;52.438;16.744;2024-03-23T09:05:47;16.40;;;7.63;;
76935;SDS011;65881;52.438;16.744;2024-03-23T09:08:13;14.65;;;5.22;;
76935;SDS011;65881;52.438;16.744;2024-03-23T09:10:39;19.33;;;5.70;;
76935;SDS011;65881;52.438;16.744;2024-03-23T09:13:05;15.15;;;7.15;;
76935;SDS011;65881;52.438;16.744;2024-03-23T09:15:32;16.95;;;6.78;;
76935;SDS011;65881;52.438;16.744;2024-03-23T09:17:59;19.95;;;7.28;;
76935;SDS011;65881;52.438;16.744;2024-03-23T09:20:25;17.52;;;6.57;;
76935;SDS011;65881;52.438;16.744;2024-03-23T09:22:51;14.50;;;6.15;;
76935;SDS011;65881;52.438;16.744;2024-03-23T09:25:16;17.85;;;6.85;;
76935;SDS011;65881;52.438;16.744;2024-03-23T09:27:42;17.25;;;7.05;;
76935;SDS011;65881;52.438;16.744;2024-03-23T09:30:07;18.90;;;6.93;;
76935;SDS011;65881;52.438;16.744;2024-03-23T09:32:35;14.68;;;7.20;;
76935;SDS011;65881;52.438;16.744;2024-03-23T09:35:00;14.75;;;8.43;;
76935;SDS011;65881;52.438;16.744;2024-03-23T09:37:26;19.38;;;8.77;;
76935;SDS011;65881;52.438;16.744;2024-03-23T09:39:51;20.75;;;8.35;;
76935;SDS011;65881;52.438;16.744;2024-03-23T09:42:17;14.82;;;7.05;;
76935;SDS011;65881;52.438;16.744;2024-03-23T09:44:43;14.07;;;6.70;;
76935;SDS011;65881;52.438;16.744;2024-03-23T09:47:09;21.05;;;8.45;;
76935;SDS011;65881;52.438;16.744;2024-03-23T09:49:34;22.40;;;8.10;;
76935;SDS011;65881;52.438;16.744;2024-03-23T09:52:03;22.38;;;6.80;;
76935;SDS011;65881;52.438;16.744;2024-03-23T09:54:29;15.27;;;7.28;;
76935;SDS011;65881;52.438;16.744;2024-03-23T09:56:55;17.95;;;8.70;;
76935;SDS011;65881;52.438;16.744;2024-03-23T09:59:20;20.80;;;8.25;;
76935;SDS011;65881;52.438;16.744;2024-03-23T10:01:47;14.75;;;7.20;;
76935;SDS011;65881;52.438;16.744;2024-03-23T10:04:35;25.73;;;8.07;;
76935;SDS011;65881;52.438;16.744;2024-03-23T10:07:15;21.15;;;7.15;;
76935;SDS011;65881;52.438;16.744;2024-03-23T10:09:43;14.02;;;7.80;;
76935;SDS011;65881;52.438;16.744;2024-03-23T10:12:10;13.52;;;6.60;;
76935;SDS011;65881;52.438;16.744;2024-03-23T10:14:38;10.05;;;6.00;;
76935;SDS011;65881;52.438;16.744;2024-03-23T10:17:17;12.55;;;6.43;;
76935;SDS011;65881;52.438;16.744;2024-03-23T10:19:50;7.63;;;5.63;;
76935;SDS011;65881;52.438;16.744;2024-03-23T10:22:20;18.58;;;6.03;;
76935;SDS011;65881;52.438;16.744;2024-03-23T10:24:47;16.20;;;7.28;;
76935;SDS011;65881;52.438;16.744;2024-03-23T10:27:20;12.63;;;5.82;;
76935;SDS011;65881;52.438;16.744;2024-03-23T10:29:47;7.07;;;5.43;;
76935;SDS011;65881;52.438;16.744;2024-03-23T10:32:14;14.40;;;6.10;;
76935;SDS011;65881;52.438;16.744;2024-03-23T10:34:40;12.93;;;5.47;;
76935;SDS011;65881;52.438;16.744;2024-03-23T10:37:06;11.68;;;5.13;;
76935;SDS011;65881;52.438;16.744;2024-03-23T10:39:33;13.13;;;6.15;;
76935;SDS011;65881;52.438;16.744;2024-03-23T10:42:03;16.13;;;6.28;;
76935;SDS011;65881;52.438;16.744;2024-03-23T10:44:30;17.80;;;7.90;;
76935;SDS011;65881;52.438;16.744;2024-03-23T10:47:00;11.38;;;6.00;;
76935;SDS011;65881;52.438;16.744;2024-03-23T10:49:26;12.77;;;6.88;;
76935;SDS011;65881;52.438;16.744;2024-03-23T10:52:02;20.08;;;6.07;;
76935;SDS011;65881;52.438;16.744;2024-03-23T10:54:29;15.82;;;6.55;;
76935;SDS011;65881;52.438;16.744;2024-03-23T10:56:57;15.10;;;7.90;;
76935;SDS011;65881;52.438;16.744;2024-03-23T10:59:28;14.63;;;6.00;;
76935;SDS011;65881;52.438;16.744;2024-03-23T11:01:59;15.18;;;6.10;;
76935;SDS011;65881;52.438;16.744;2024-03-23T11:07:00;9.20;;;5.60;;
76935;SDS011;65881;52.438;16.744;2024-03-23T11:09:39;17.75;;;6.25;;
76935;SDS011;65881;52.438;16.744;2024-03-23T11:14:54;11.45;;;7.10;;
76935;SDS011;65881;52.438;16.744;2024-03-23T11:17:35;19.92;;;6.18;;
76935;SDS011;65881;52.438;16.744;2024-03-23T11:20:04;13.70;;;6.75;;
76935;SDS011;65881;52.438;16.744;2024-03-23T11:22:40;11.82;;;6.38;;
76935;SDS011;65881;52.438;16.744;2024-03-23T11:25:14;17.85;;;7.53;;
76935;SDS011;65881;52.438;16.744;2024-03-23T11:27:50;11.98;;;6.90;;
76935;SDS011;65881;52.438;16.744;2024-03-23T11:32:52;12.90;;;6.60;;
76935;SDS011;65881;52.438;16.744;2024-03-23T11:35:26;10.60;;;6.18;;
76935;SDS011;65881;52.438;16.744;2024-03-23T11:38:12;15.32;;;6.13;;
76935;SDS011;65881;52.438;16.744;2024-03-23T11:40:40;11.30;;;5.93;;
76935;SDS011;65881;52.438;16.744;2024-03-23T11:43:16;12.63;;;6.10;;
76935;SDS011;65881;52.438;16.744;2024-03-23T11:45:46;14.27;;;6.43;;
76935;SDS011;65881;52.438;16.744;2024-03-23T11:48:17;11.38;;;6.63;;
76935;SDS011;65881;52.438;16.744;2024-03-23T11:50:47;12.02;;;7.05;;
76935;SDS011;65881;52.438;16.744;2024-03-23T11:53:23;15.32;;;5.88;;
76935;SDS011;65881;52.438;16.744;2024-03-23T11:55:52;7.00;;;5.07;;
76935;SDS011;65881;52.438;16.744;2024-03-23T11:58:20;9.50;;;5.75;;
76935;SDS011;65881;52.438;16.744;2024-03-23T12:00:55;11.77;;;6.18;;
76935;SDS011;65881;52.438;16.744;2024-03-23T12:03:22;11.73;;;5.82;;
76935;SDS011;65881;52.438;16.744;2024-03-23T12:05:54;8.65;;;6.63;;
76935;SDS011;65881;52.438;16.744;2024-03-23T12:08:24;14.10;;;6.32;;
76935;SDS011;65881;52.438;16.744;2024-03-23T12:11:06;10.75;;;6.22;;
76935;SDS011;65881;52.438;16.744;2024-03-23T12:13:34;9.40;;;6.07;;
76935;SDS011;65881;52.438;16.744;2024-03-23T12:16:12;14.15;;;8.35;;
76935;SDS011;65881;52.438;16.744;2024-03-23T12:18:42;16.23;;;7.68;;
76935;SDS011;65881;52.438;16.744;2024-03-23T12:21:09;13.38;;;6.38;;
76935;SDS011;65881;52.438;16.744;2024-03-23T12:23:35;15.05;;;8.38;;
76935;SDS011;65881;52.438;16.744;2024-03-23T12:26:03;12.65;;;7.60;;
76935;SDS011;65881;52.438;16.744;2024-03-23T12:28:29;12.75;;;7.05;;
76935;SDS011;65881;52.438;16.744;2024-03-23T12:30:55;14.95;;;9.90;;
76935;SDS011;65881;52.438;16.744;2024-03-23T12:33:21;17.73;;;8.90;;
76935;SDS011;65881;52.438;16.744;2024-03-23T12:35:50;12.30;;;7.93;;
76935;SDS011;65881;52.438;16.744;2024-03-23T12:38:16;12.00;;;5.82;;
76935;SDS011;65881;52.438;16.744;2024-03-23T12:40:42;8.27;;;5.30;;
76935;SDS011;65881;52.438;16.744;2024-03-23T12:43:12;8.95;;;4.95;;
76935;SDS011;65881;52.438;16.744;2024-03-23T12:45:38;7.72;;;4.78;;
76935;SDS011;65881;52.438;16.744;2024-03-23T12:48:03;8.10;;;4.38;;
76935;SDS011;65881;52.438;16.744;2024-03-23T12:50:29;7.50;;;4.35;;
76935;SDS011;65881;52.438;16.744;2024-03-23T12:52:55;10.52;;;4.68;;
76935;SDS011;65881;52.438;16.744;2024-03-23T12:55:20;9.30;;;4.88;;
76935;SDS011;65881;52.438;16.744;2024-03-23T12:57:46;7.82;;;5.07;;
76935;SDS011;65881;52.438;16.744;2024-03-23T13:00:13;11.38;;;4.47;;
76935;SDS011;65881;52.438;16.744;2024-03-23T13:02:41;9.45;;;5.25;;
76935;SDS011;65881;52.438;16.744;2024-03-23T13:05:07;7.88;;;4.18;;
76935;SDS011;65881;52.438;16.744;2024-03-23T13:07:35;6.88;;;4.13;;
76935;SDS011;65881;52.438;16.744;2024-03-23T13:10:02;7.80;;;4.60;;
76935;SDS011;65881;52.438;16.744;2024-03-23T13:12:28;5.32;;;4.10;;
76935;SDS011;65881;52.438;16.744;2024-03-23T13:14:54;6.35;;;3.40;;
76935;SDS011;65881;52.438;16.744;2024-03-23T13:17:19;6.70;;;4.00;;
76935;SDS011;65881;52.438;16.744;2024-03-23T13:19:45;5.32;;;2.90;;
76935;SDS011;65881;52.438;16.744;2024-03-23T13:22:10;4.68;;;2.70;;
76935;SDS011;65881;52.438;16.744;2024-03-23T13:24:36;4.43;;;2.40;;
76935;SDS011;65881;52.438;16.744;2024-03-23T13:27:02;3.40;;;2.17;;
76935;SDS011;65881;52.438;16.744;2024-03-23T13:29:31;3.30;;;2.63;;
76935;SDS011;65881;52.438;16.744;2024-03-23T13:31:56;3.63;;;2.85;;
76935;SDS011;65881;52.438;16.744;2024-03-23T13:34:22;6.30;;;2.97;;
76935;SDS011;65881;52.438;16.744;2024-03-23T13:36:47;5.15;;;2.20;;
76935;SDS011;65881;52.438;16.744;2024-03-23T13:39:14;3.47;;;2.83;;
76935;SDS011;65881;52.438;16.744;2024-03-23T13:41:40;3.22;;;2.05;;
76935;SDS011;65881;52.438;16.744;2024-03-23T13:44:07;3.47;;;2.30;;
76935;SDS011;65881;52.438;16.744;2024-03-23T13:46:35;6.20;;;2.35;;
76935;SDS011;65881;52.438;16.744;2024-03-23T13:49:01;4.53;;;3.00;;
76935;SDS011;65881;52.438;16.744;2024-03-23T13:51:26;4.05;;;2.40;;
76935;SDS011;65881;52.438;16.744;2024-03-23T13:53:53;5.97;;;2.83;;
76935;SDS011;65881;52.438;16.744;2024-03-23T13:56:19;4.72;;;2.72;;
76935;SDS011;65881;52.438;16.744;2024-03-23T13:58:45;4.65;;;2.70;;
76935;SDS011;65881;52.438;16.744;2024-03-23T14:01:12;7.43;;;3.13;;
76935;SDS011;65881;52.438;16.744;2024-03-23T14:03:38;4.90;;;2.92;;
76935;SDS011;65881;52.438;16.744;2024-03-23T14:06:04;6.88;;;2.78;;
76935;SDS011;65881;52.438;16.744;2024-03-23T14:08:32;4.82;;;2.53;;
76935;SDS011;65881;52.438;16.744;2024-03-23T14:11:00;5.35;;;2.30;;
76935;SDS011;65881;52.438;16.744;2024-03-23T14:13:27;3.45;;;2.28;;
76935;SDS011;65881;52.438;16.744;2024-03-23T14:15:55;6.45;;;2.53;;
76935;SDS011;65881;52.438;16.744;2024-03-23T14:18:21;3.17;;;2.03;;
76935;SDS011;65881;52.438;16.744;2024-03-23T14:20:51;4.40;;;2.60;;
76935;SDS011;65881;52.438;16.744;2024-03-23T14:23:18;3.13;;;2.10;;
76935;SDS011;65881;52.438;16.744;2024-03-23T14:25:43;7.63;;;3.20;;
76935;SDS011;65881;52.438;16.744;2024-03-23T14:28:10;1.90;;;1.50;;
76935;SDS011;65881;52.438;16.744;2024-03-23T14:30:39;1.30;;;1.20;;
76935;SDS011;65881;52.438;16.744;2024-03-23T14:33:06;3.92;;;1.50;;
76935;SDS011;65881;52.438;16.744;2024-03-23T14:35:32;2.13;;;1.80;;
76935;SDS011;65881;52.438;16.744;2024-03-23T14:37:58;3.10;;;2.00;;
76935;SDS011;65881;52.438;16.744;2024-03-23T14:40:23;4.10;;;3.10;;
76935;SDS011;65881;52.438;16.744;2024-03-23T14:42:55;2.63;;;2.25;;
76935;SDS011;65881;52.438;16.744;2024-03-23T14:45:21;3.67;;;2.60;;
76935;SDS011;65881;52.438;16.744;2024-03-23T14:47:48;2.53;;;2.15;;
76935;SDS011;65881;52.438;16.744;2024-03-23T14:50:14;3.40;;;1.85;;
76935;SDS011;65881;52.438;16.744;2024-03-23T14:52:44;2.83;;;2.33;;
76935;SDS011;65881;52.438;16.744;2024-03-23T14:55:13;3.28;;;2.03;;
76935;SDS011;65881;52.438;16.744;2024-03-23T14:57:39;4.05;;;2.45;;
76935;SDS011;65881;52.438;16.744;2024-03-23T15:00:06;3.60;;;1.92;;
76935;SDS011;65881;52.438;16.744;2024-03-23T15:02:37;3.90;;;1.80;;
76935;SDS011;65881;52.438;16.744;2024-03-23T15:05:06;4.65;;;2.58;;
76935;SDS011;65881;52.438;16.744;2024-03-23T15:07:35;3.78;;;2.40;;
76935;SDS011;65881;52.438;16.744;2024-03-23T15:10:03;2.78;;;1.80;;
76935;SDS011;65881;52.438;16.744;2024-03-23T15:12:30;4.05;;;1.73;;
76935;SDS011;65881;52.438;16.744;2024-03-23T15:14:58;3.90;;;1.80;;
76935;SDS011;65881;52.438;16.744;2024-03-23T15:17:24;2.20;;;1.67;;
76935;SDS011;65881;52.438;16.744;2024-03-23T15:19:49;3.78;;;2.10;;
76935;SDS011;65881;52.438;16.744;2024-03-23T15:22:18;2.47;;;2.28;;
76935;SDS011;65881;52.438;16.744;2024-03-23T15:24:46;3.58;;;2.50;;
76935;SDS011;65881;52.438;16.744;2024-03-23T15:27:12;3.25;;;2.38;;